createdAt,value
2023-04-28T00:04:13.901Z,1002.62
2023-04-28T00:34:32.349Z,1002.312
2023-04-28T01:04:50.096Z,1001.822
2023-04-28T01:35:06.895Z,1001.534
2023-04-28T02:05:23.458Z,1001.578
2023-04-28T02:35:41.302Z,1001.32
2023-04-28T03:05:59.167Z,1000.982
2023-04-28T03:36:15.327Z,1000.77
2023-04-28T04:06:32.941Z,1000.362
2023-04-28T04:36:54.010Z,1000.155
2023-04-28T05:07:11.635Z,1000.5189999999999
2023-04-28T05:37:29.569Z,1000.432
2023-04-28T06:07:48.354Z,1000.459
2023-04-28T06:38:08.526Z,1000.633
2023-04-28T07:08:26.051Z,1000.247
2023-04-28T07:38:43.748Z,1000.169
2023-04-28T08:09:01.145Z,1000.512
2023-04-28T08:39:20.469Z,1000.5419999999999
2023-04-28T09:09:41.644Z,1000.7360000000001
2023-04-28T09:40:02.791Z,1000.71
2023-04-28T10:10:20.910Z,1000.563
2023-04-28T10:40:40.118Z,1000.408
2023-04-28T11:10:57.996Z,1000.395
2023-04-28T11:41:18.612Z,999.977
2023-04-28T12:11:44.201Z,999.7080000000001
2023-04-28T12:42:15.386Z,999.617
2023-04-28T13:12:22.112Z,999.8639999999999
2023-04-28T13:42:31.092Z,999.8689999999999
2023-04-28T14:12:46.852Z,999.0789
2023-04-28T14:43:09.110Z,998.916
2023-04-28T15:13:26.176Z,998.798
2023-04-28T16:14:00.424Z,998.67
2023-04-28T16:44:14.966Z,998.7669999999999
2023-04-28T17:14:30.911Z,998.52
2023-04-28T17:44:45.668Z,998.6259
2023-04-28T18:15:03.515Z,998.743
2023-04-28T18:45:19.364Z,999.0039999999999
2023-04-28T19:15:35.374Z,999.3999
2023-04-28T19:45:53.060Z,1000.034
2023-04-28T20:16:09.065Z,1000.288
2023-04-28T20:46:26.876Z,1000.3969999999999
2023-04-28T21:16:43.326Z,1000.373
2023-04-28T21:47:01.337Z,1000.523
2023-04-28T22:17:19.051Z,1000.596
2023-04-28T22:47:36.637Z,1000.686
2023-04-28T23:17:52.936Z,1000.816
2023-04-28T23:48:10.135Z,1000.8860000000001
